Time;durP1;ratioP1;P1;durP2;ratioP2;P2;SDS_P1;SDS_P2;PMS_P1;PMS_P2;Temp;Humidity;BMP_temperature;BMP_pressure;BME280_temperature;BME280_humidity;BME280_pressure;Samples;Min_cycle;Max_cycle;Signal;HPM_P1;HPM_P2
2023/03/06 00:01:26;;;;;;;3.67;1.60;;;1.40;99.90;;;;;;5048001;28;20037;-68
2023/03/06 00:03:51;;;;;;;5.72;1.80;;;1.40;99.90;;;;;;5050014;28;20407;-68
2023/03/06 00:06:17;;;;;;;7.00;2.45;;;1.40;99.90;;;;;;5047838;28;20041;-68
2023/03/06 00:08:43;;;;;;;6.50;2.00;;;1.40;99.90;;;;;;5059120;28;20041;-68
2023/03/06 00:11:09;;;;;;;7.00;1.75;;;1.40;99.90;;;;;;5046696;28;20033;-69
2023/03/06 00:13:34;;;;;;;8.05;3.03;;;1.40;99.90;;;;;;5038783;28;20479;-68
2023/03/06 00:16:00;;;;;;;7.03;1.80;;;1.30;99.90;;;;;;5037331;28;20080;-68
2023/03/06 00:18:26;;;;;;;7.47;1.90;;;1.30;99.90;;;;;;5038158;28;20404;-69
2023/03/06 00:20:51;;;;;;;3.95;1.67;;;1.20;99.90;;;;;;5023844;28;20123;-68
2023/03/06 00:23:17;;;;;;;7.68;2.03;;;1.20;99.90;;;;;;5036089;28;20087;-69
2023/03/06 00:25:44;;;;;;;7.28;2.35;;;1.20;99.90;;;;;;5037421;28;20106;-68
2023/03/06 00:28:11;;;;;;;6.10;2.15;;;1.20;99.90;;;;;;5039537;28;20124;-68
2023/03/06 00:30:36;;;;;;;7.82;1.98;;;1.20;99.90;;;;;;5041868;28;20037;-70
2023/03/06 00:33:02;;;;;;;4.90;1.85;;;1.20;99.90;;;;;;5041870;28;20033;-69
2023/03/06 00:35:28;;;;;;;5.22;1.75;;;1.20;99.90;;;;;;5037416;28;20432;-68
2023/03/06 00:37:54;;;;;;;6.15;1.50;;;1.20;99.90;;;;;;5043502;28;20403;-70
2023/03/06 00:40:20;;;;;;;6.45;1.90;;;1.20;99.90;;;;;;5048750;28;20041;-70
2023/03/06 00:42:47;;;;;;;5.63;1.80;;;1.20;99.90;;;;;;5049479;28;20103;-67
2023/03/06 00:45:13;;;;;;;6.32;1.73;;;1.30;99.90;;;;;;5048768;28;20471;-69
2023/03/06 00:47:39;;;;;;;3.67;1.75;;;1.20;99.90;;;;;;5049984;28;20090;-68
2023/03/06 00:50:06;;;;;;;3.42;1.67;;;1.30;99.90;;;;;;5046565;28;20052;-67
2023/03/06 00:52:32;;;;;;;8.68;2.25;;;1.30;99.90;;;;;;5031186;28;20458;-68
2023/03/06 00:54:57;;;;;;;6.55;2.03;;;1.30;99.90;;;;;;5047598;28;20141;-68
2023/03/06 00:57:23;;;;;;;4.15;1.67;;;1.30;99.90;;;;;;5050147;28;20055;-69
2023/03/06 00:59:49;;;;;;;8.05;2.05;;;1.30;99.90;;;;;;5049163;28;20067;-69
2023/03/06 01:02:14;;;;;;;3.05;1.85;;;1.30;99.90;;;;;;5045017;28;20029;-69
2023/03/06 01:04:40;;;;;;;5.80;2.03;;;1.30;99.90;;;;;;5047739;28;20033;-67
2023/03/06 01:07:06;;;;;;;6.43;1.98;;;1.40;99.90;;;;;;5047673;28;20049;-67
2023/03/06 01:09:32;;;;;;;9.15;2.83;;;1.40;99.90;;;;;;5049539;28;20503;-68
2023/03/06 01:11:57;;;;;;;8.68;2.22;;;1.40;99.90;;;;;;5046675;28;20129;-69
2023/03/06 01:14:23;;;;;;;7.13;2.33;;;1.40;99.90;;;;;;5048511;28;20415;-69
2023/03/06 01:16:49;;;;;;;5.18;1.90;;;1.50;99.90;;;;;;5047689;28;20131;-68
2023/03/06 01:19:15;;;;;;;7.25;2.85;;;1.50;99.90;;;;;;5046251;28;20039;-68
2023/03/06 01:21:41;;;;;;;4.47;1.92;;;1.50;99.90;;;;;;5032954;28;20116;-69
2023/03/06 01:24:06;;;;;;;3.58;1.98;;;1.50;99.90;;;;;;5031462;28;20174;-69
2023/03/06 01:26:33;;;;;;;3.65;1.90;;;1.50;99.90;;;;;;5047129;28;20434;-69
2023/03/06 01:28:59;;;;;;;8.52;2.10;;;1.60;99.90;;;;;;5048819;28;20119;-68
2023/03/06 01:31:25;;;;;;;7.25;2.15;;;1.60;99.90;;;;;;5046689;28;20400;-69
2023/03/06 01:33:51;;;;;;;4.35;2.00;;;1.60;99.90;;;;;;5050305;28;20051;-68
2023/03/06 01:36:17;;;;;;;4.90;2.17;;;1.60;99.90;;;;;;5044172;28;20073;-69
2023/03/06 01:38:43;;;;;;;6.40;2.30;;;1.60;99.90;;;;;;5049060;28;20111;-69
2023/03/06 01:41:09;;;;;;;6.10;2.65;;;1.60;99.90;;;;;;5047734;28;20438;-68
2023/03/06 01:43:43;;;;;;;6.65;2.58;;;1.60;99.90;;;;;;5048825;28;20076;-69
2023/03/06 01:46:27;;;;;;;4.93;2.55;;;1.60;99.90;;;;;;5048605;28;20443;-68
2023/03/06 01:49:10;;;;;;;4.80;2.30;;;1.60;99.90;;;;;;5065333;28;20037;-70
2023/03/06 01:51:46;;;;;;;3.75;2.50;;;1.60;99.90;;;;;;5049228;28;20048;-67
2023/03/06 01:54:17;;;;;;;6.13;2.38;;;1.70;99.90;;;;;;5045428;28;20057;-67
2023/03/06 01:56:46;;;;;;;3.33;2.22;;;1.70;99.90;;;;;;5049156;28;20090;-70
2023/03/06 01:59:12;;;;;;;5.50;2.80;;;1.70;99.90;;;;;;5032497;28;20114;-69
2023/03/06 02:01:39;;;;;;;6.88;2.72;;;1.70;99.90;;;;;;5031415;28;20040;-68
2023/03/06 02:04:05;;;;;;;8.85;3.10;;;1.70;99.90;;;;;;5038907;28;20837;-69
2023/03/06 02:06:36;;;;;;;7.03;3.10;;;1.80;99.90;;;;;;5044946;28;20044;-69
2023/03/06 02:09:03;;;;;;;9.93;4.45;;;1.70;99.90;;;;;;5047971;28;20045;-68
2023/03/06 02:11:29;;;;;;;6.82;3.10;;;1.70;99.90;;;;;;5036423;28;20037;-69
2023/03/06 02:13:55;;;;;;;5.35;3.50;;;1.80;99.90;;;;;;5049043;28;20094;-70
2023/03/06 02:16:25;;;;;;;9.95;3.80;;;1.80;99.90;;;;;;5048117;28;20415;-68
2023/03/06 02:18:52;;;;;;;6.75;3.35;;;1.80;99.90;;;;;;5046957;28;20487;-69
2023/03/06 02:21:24;;;;;;;6.53;3.70;;;1.80;99.90;;;;;;5037880;28;20052;-69
2023/03/06 02:23:55;;;;;;;4.40;3.40;;;1.80;99.90;;;;;;5037131;28;20088;-68
2023/03/06 02:26:22;;;;;;;8.30;3.67;;;1.80;99.90;;;;;;5047669;28;20036;-67
2023/03/06 02:28:47;;;;;;;11.50;4.38;;;1.90;99.90;;;;;;5041533;28;20045;-69
2023/03/06 02:31:22;;;;;;;6.93;4.05;;;1.90;99.90;;;;;;5041017;28;20079;-68
2023/03/06 02:34:14;;;;;;;8.90;4.25;;;1.90;99.90;;;;;;5034176;28;20037;-69
2023/03/06 02:36:50;;;;;;;7.35;4.70;;;1.90;99.90;;;;;;5048344;28;20496;-68
2023/03/06 02:39:18;;;;;;;6.55;4.70;;;1.90;99.90;;;;;;5038403;28;20048;-69
2023/03/06 02:41:44;;;;;;;6.85;4.60;;;1.90;99.90;;;;;;5042265;28;20773;-68
2023/03/06 02:44:10;;;;;;;7.88;4.45;;;1.90;99.90;;;;;;5078247;28;20091;-68
2023/03/06 02:46:35;;;;;;;7.93;4.85;;;1.90;99.90;;;;;;5046990;28;20066;-69
2023/03/06 02:49:01;;;;;;;7.10;4.85;;;1.90;99.90;;;;;;5047061;28;20093;-68
2023/03/06 02:51:27;;;;;;;8.50;4.97;;;2.00;99.90;;;;;;5043873;28;20033;-69
2023/03/06 02:53:52;;;;;;;8.98;5.00;;;2.00;99.90;;;;;;5028425;28;20061;-68
2023/03/06 02:56:18;;;;;;;8.75;4.90;;;2.00;99.90;;;;;;5046353;28;20051;-69
2023/03/06 02:58:44;;;;;;;8.20;4.68;;;2.00;99.90;;;;;;5033137;28;20057;-68
2023/03/06 03:01:10;;;;;;;10.82;5.15;;;2.00;99.90;;;;;;5045881;28;20049;-68
2023/03/06 03:03:36;;;;;;;8.65;5.50;;;2.10;99.90;;;;;;5045487;28;20048;-69
2023/03/06 03:06:04;;;;;;;7.80;5.30;;;2.10;99.90;;;;;;5048048;28;20033;-70
2023/03/06 03:08:30;;;;;;;9.98;5.35;;;2.10;99.90;;;;;;5044692;28;20119;-69
2023/03/06 03:10:56;;;;;;;8.02;5.07;;;2.20;99.90;;;;;;5048166;28;20159;-69
2023/03/06 03:13:22;;;;;;;9.32;4.63;;;2.20;99.90;;;;;;5051022;28;20029;-68
2023/03/06 03:16:06;;;;;;;6.50;3.97;;;2.30;99.90;;;;;;5049892;28;20381;-68
2023/03/06 03:18:32;;;;;;;8.23;3.47;;;2.30;99.90;;;;;;5049794;28;20131;-68
2023/03/06 03:20:58;;;;;;;6.30;2.60;;;2.40;99.90;;;;;;5046527;28;20033;-68
2023/03/06 03:23:24;;;;;;;7.18;2.40;;;2.40;99.90;;;;;;5049994;28;20064;-68
2023/03/06 03:25:50;;;;;;;4.95;2.28;;;2.40;99.90;;;;;;5048478;28;20036;-69
2023/03/06 03:28:16;;;;;;;3.70;2.20;;;2.40;99.90;;;;;;5045915;28;20127;-69
2023/03/06 03:30:41;;;;;;;4.90;2.00;;;2.50;99.90;;;;;;5081346;28;20045;-69
2023/03/06 03:33:08;;;;;;;2.70;1.70;;;2.50;99.90;;;;;;5048320;28;20049;-69
2023/03/06 03:35:34;;;;;;;2.03;1.50;;;2.50;99.90;;;;;;5050856;28;20083;-68
2023/03/06 03:37:59;;;;;;;3.83;1.52;;;2.50;99.90;;;;;;5049666;28;20439;-68
2023/03/06 03:40:25;;;;;;;2.08;1.35;;;2.40;99.90;;;;;;5048561;28;20029;-68
2023/03/06 03:42:51;;;;;;;1.30;1.10;;;2.40;99.90;;;;;;5064279;28;20049;-68
2023/03/06 03:45:16;;;;;;;3.70;1.55;;;2.30;99.90;;;;;;5050991;28;20064;-69
2023/03/06 03:47:42;;;;;;;4.45;1.30;;;2.20;99.90;;;;;;5035664;28;20037;-69
2023/03/06 03:50:09;;;;;;;3.05;1.40;;;2.20;99.90;;;;;;5049000;28;20137;-68
2023/03/06 03:52:35;;;;;;;1.60;1.20;;;2.20;99.90;;;;;;5048716;28;20040;-68
2023/03/06 03:55:00;;;;;;;3.47;1.50;;;2.10;99.90;;;;;;5049890;28;20057;-68
2023/03/06 03:57:26;;;;;;;1.70;1.35;;;2.20;99.90;;;;;;5048626;28;20136;-68
2023/03/06 03:59:52;;;;;;;2.85;1.35;;;2.20;99.90;;;;;;5049873;28;20060;-69
2023/03/06 04:02:20;;;;;;;1.60;1.20;;;2.10;99.90;;;;;;5065839;28;20041;-68
2023/03/06 04:04:46;;;;;;;2.80;1.25;;;2.20;99.90;;;;;;5046508;28;20572;-69
2023/03/06 04:07:12;;;;;;;1.65;1.30;;;2.20;99.90;;;;;;5050785;28;20041;-68
2023/03/06 04:09:37;;;;;;;2.83;1.65;;;2.10;99.90;;;;;;5046287;28;20126;-68
2023/03/06 04:12:04;;;;;;;2.20;1.48;;;2.20;99.90;;;;;;5049228;28;20070;-68
2023/03/06 04:14:29;;;;;;;3.10;1.20;;;2.20;99.90;;;;;;5044634;28;20045;-69
2023/03/06 04:16:55;;;;;;;1.65;1.20;;;2.20;99.90;;;;;;5050114;28;20045;-68
2023/03/06 04:19:21;;;;;;;3.38;1.42;;;2.20;99.90;;;;;;5046279;28;20045;-68
2023/03/06 04:21:47;;;;;;;3.08;1.30;;;2.20;99.90;;;;;;5039744;28;20471;-67
2023/03/06 04:24:12;;;;;;;1.95;1.30;;;2.30;99.90;;;;;;5040795;28;20032;-68
2023/03/06 04:26:38;;;;;;;2.40;1.30;;;2.30;99.90;;;;;;5045364;28;20124;-69
2023/03/06 04:29:04;;;;;;;3.22;1.40;;;2.30;99.90;;;;;;5050998;28;20065;-69
2023/03/06 04:31:29;;;;;;;1.55;1.00;;;2.40;99.90;;;;;;5033032;28;20478;-68
2023/03/06 04:33:55;;;;;;;1.80;1.40;;;2.40;99.90;;;;;;5050534;28;20033;-68
2023/03/06 04:36:30;;;;;;;2.92;1.10;;;2.40;99.90;;;;;;5049171;28;20132;-69
2023/03/06 04:38:56;;;;;;;5.45;2.40;;;2.50;99.90;;;;;;5034154;28;20514;-68
2023/03/06 04:41:21;;;;;;;3.60;2.58;;;2.50;99.90;;;;;;5047870;28;20090;-68
2023/03/06 04:43:47;;;;;;;13.13;8.55;;;2.50;99.90;;;;;;5034041;28;20052;-69
2023/03/06 04:46:13;;;;;;;8.98;5.20;;;2.50;99.90;;;;;;5048119;28;20111;-69
2023/03/06 04:48:38;;;;;;;2.90;2.33;;;2.50;99.90;;;;;;5050329;28;20044;-68
2023/03/06 04:51:04;;;;;;;1.67;1.27;;;2.50;99.90;;;;;;5049148;28;20041;-69
2023/03/06 04:53:31;;;;;;;3.20;1.42;;;2.50;99.90;;;;;;5047417;28;20127;-68
2023/03/06 04:55:57;;;;;;;2.97;2.05;;;2.50;99.90;;;;;;5049992;28;20060;-69
2023/03/06 04:58:23;;;;;;;1.63;1.30;;;2.60;99.90;;;;;;5031299;28;20045;-69
2023/03/06 05:00:49;;;;;;;1.58;1.10;;;2.60;99.90;;;;;;5050582;28;20499;-68
2023/03/06 05:03:14;;;;;;;1.85;1.00;;;2.60;99.90;;;;;;5033097;28;20857;-70
2023/03/06 05:05:40;;;;;;;1.77;1.17;;;2.60;99.90;;;;;;5049649;28;20025;-69
2023/03/06 05:08:06;;;;;;;1.92;1.30;;;2.60;99.90;;;;;;5049501;28;20045;-69
2023/03/06 05:10:32;;;;;;;1.55;1.10;;;2.60;99.90;;;;;;5050077;28;20128;-69
2023/03/06 05:12:58;;;;;;;1.10;1.00;;;2.60;99.90;;;;;;5048241;28;20120;-69
2023/03/06 05:15:23;;;;;;;2.13;1.10;;;2.60;99.90;;;;;;5033430;28;20052;-70
2023/03/06 05:17:49;;;;;;;1.42;1.13;;;2.60;99.90;;;;;;5047167;28;20060;-68
2023/03/06 05:20:15;;;;;;;2.08;1.10;;;2.60;99.90;;;;;;5032589;28;20064;-69
2023/03/06 05:22:42;;;;;;;1.70;1.10;;;2.50;99.90;;;;;;5048720;28;20392;-68
2023/03/06 05:25:09;;;;;;;1.55;0.90;;;2.50;99.90;;;;;;5049369;28;20033;-68
2023/03/06 05:27:35;;;;;;;1.65;1.20;;;2.50;99.90;;;;;;5046767;28;20071;-68
2023/03/06 05:30:01;;;;;;;1.02;0.93;;;2.50;99.90;;;;;;5048558;28;20514;-68
2023/03/06 05:32:27;;;;;;;1.33;1.10;;;2.50;99.90;;;;;;5049529;28;20039;-69
2023/03/06 05:34:53;;;;;;;1.10;1.02;;;2.50;99.90;;;;;;5045602;28;20069;-68
2023/03/06 05:37:18;;;;;;;1.55;1.00;;;2.50;99.90;;;;;;5045224;28;20116;-68
2023/03/06 05:39:44;;;;;;;1.48;1.00;;;2.40;99.90;;;;;;5045008;28;20033;-68
2023/03/06 05:42:10;;;;;;;1.00;0.90;;;2.40;99.90;;;;;;5048057;28;20048;-69
2023/03/06 05:44:36;;;;;;;1.52;1.20;;;2.40;99.90;;;;;;5039209;28;20039;-69
2023/03/06 05:47:02;;;;;;;1.13;1.02;;;2.40;99.90;;;;;;5035536;28;20048;-68
2023/03/06 05:49:33;;;;;;;2.47;1.48;;;2.40;99.90;;;;;;5053306;28;20037;-69
2023/03/06 05:51:59;;;;;;;1.27;1.13;;;2.40;99.90;;;;;;5048738;28;20037;-68
2023/03/06 05:54:25;;;;;;;1.15;1.05;;;2.40;99.90;;;;;;5043132;28;20052;-69
2023/03/06 05:56:51;;;;;;;0.98;0.90;;;2.30;99.90;;;;;;5041148;28;20045;-69
2023/03/06 05:59:17;;;;;;;1.27;1.17;;;2.30;99.90;;;;;;5068196;28;20041;-68
2023/03/06 06:01:43;;;;;;;1.55;1.15;;;2.30;99.90;;;;;;5034279;28;20099;-69
2023/03/06 06:04:10;;;;;;;1.17;1.08;;;2.20;99.90;;;;;;5047454;28;20051;-69
2023/03/06 06:06:36;;;;;;;1.20;1.10;;;2.20;99.90;;;;;;5037927;28;20061;-68
2023/03/06 06:09:02;;;;;;;1.02;0.93;;;2.20;99.90;;;;;;5045454;28;20034;-68
2023/03/06 06:11:27;;;;;;;1.08;0.98;;;2.10;99.90;;;;;;5058395;28;20396;-68
2023/03/06 06:13:53;;;;;;;1.33;1.00;;;2.10;99.90;;;;;;5038964;28;20412;-70
2023/03/06 06:16:19;;;;;;;1.40;1.30;;;2.00;99.90;;;;;;5034668;28;20052;-68
2023/03/06 06:18:45;;;;;;;2.13;1.15;;;2.00;99.90;;;;;;5037158;28;20053;-68
2023/03/06 06:21:13;;;;;;;1.10;1.00;;;1.90;99.90;;;;;;5035693;28;20051;-68
2023/03/06 06:23:39;;;;;;;1.65;1.10;;;1.90;99.90;;;;;;5052358;28;20458;-69
2023/03/06 06:26:06;;;;;;;0.88;0.88;;;1.90;99.90;;;;;;5040463;28;20037;-69
2023/03/06 06:28:34;;;;;;;1.20;1.10;;;1.80;99.90;;;;;;5044074;28;20041;-70
2023/03/06 06:31:05;;;;;;;1.58;1.20;;;1.80;99.90;;;;;;5039243;28;20033;-69
2023/03/06 06:33:31;;;;;;;0.90;0.90;;;1.80;99.90;;;;;;5038321;28;20033;-68
2023/03/06 06:35:57;;;;;;;1.13;1.00;;;1.80;99.90;;;;;;5038711;28;20055;-69
2023/03/06 06:38:22;;;;;;;1.10;1.00;;;1.80;99.90;;;;;;5045656;28;20446;-69
2023/03/06 06:40:48;;;;;;;1.17;1.08;;;1.80;99.90;;;;;;5042299;28;20037;-69
2023/03/06 06:43:13;;;;;;;0.90;0.90;;;1.80;99.90;;;;;;5044560;28;20048;-69
2023/03/06 06:45:41;;;;;;;1.33;1.08;;;1.80;99.90;;;;;;5040983;28;20541;-68
2023/03/06 06:48:07;;;;;;;1.30;1.20;;;1.80;99.90;;;;;;5033712;28;20041;-69
2023/03/06 06:50:33;;;;;;;0.95;0.85;;;1.90;99.90;;;;;;5048235;28;20050;-68
2023/03/06 06:52:58;;;;;;;1.20;1.10;;;1.90;99.90;;;;;;5030795;28;20041;-68
2023/03/06 06:55:24;;;;;;;1.85;1.20;;;1.80;99.90;;;;;;5007418;28;1126958;-70
2023/03/06 06:57:49;;;;;;;1.90;1.20;;;1.90;99.90;;;;;;5051078;28;20051;-69
2023/03/06 07:00:16;;;;;;;1.17;1.08;;;1.90;99.90;;;;;;5043576;28;20500;-68
2023/03/06 07:02:42;;;;;;;1.50;1.40;;;1.90;99.90;;;;;;5057297;28;20102;-69
2023/03/06 07:05:08;;;;;;;1.10;1.00;;;1.90;99.90;;;;;;5041233;28;20068;-68
2023/03/06 07:07:36;;;;;;;1.20;1.10;;;1.80;99.90;;;;;;5043312;28;20476;-69
2023/03/06 07:10:05;;;;;;;2.17;1.23;;;1.80;99.90;;;;;;5059154;28;20033;-68
2023/03/06 07:12:31;;;;;;;1.10;1.00;;;1.80;99.90;;;;;;5080820;28;20033;-68
2023/03/06 07:14:57;;;;;;;1.25;1.10;;;1.90;99.90;;;;;;5046381;28;20068;-70
2023/03/06 07:17:23;;;;;;;1.83;1.20;;;2.00;99.90;;;;;;5029687;28;20459;-69
2023/03/06 07:19:48;;;;;;;1.52;1.42;;;2.10;99.90;;;;;;5050351;28;20037;-69
2023/03/06 07:22:14;;;;;;;1.40;1.30;;;2.20;99.90;;;;;;5051424;28;20037;-71
2023/03/06 07:24:40;;;;;;;2.33;1.30;;;2.20;99.90;;;;;;5049715;28;20091;-70
2023/03/06 07:27:06;;;;;;;1.40;1.30;;;2.20;99.90;;;;;;5069496;28;20501;-70
2023/03/06 07:29:31;;;;;;;1.50;1.40;;;2.20;99.90;;;;;;5039978;28;20072;-70
2023/03/06 07:31:57;;;;;;;2.70;1.70;;;2.30;99.90;;;;;;5027282;28;20048;-70
2023/03/06 07:34:23;;;;;;;1.50;1.30;;;2.30;99.90;;;;;;5052343;28;20037;-71
2023/03/06 07:36:49;;;;;;;1.48;1.38;;;2.20;99.90;;;;;;5032690;28;20057;-70
2023/03/06 07:39:15;;;;;;;1.67;1.58;;;2.30;99.90;;;;;;5025482;28;20107;-70
2023/03/06 07:41:41;;;;;;;2.17;1.70;;;2.40;99.90;;;;;;5039117;28;20480;-70
2023/03/06 07:44:06;;;;;;;1.45;1.35;;;2.60;99.90;;;;;;5047309;28;20040;-71
2023/03/06 07:46:32;;;;;;;1.40;1.30;;;2.70;99.90;;;;;;5050745;28;20514;-70
2023/03/06 07:48:58;;;;;;;1.30;1.20;;;2.80;99.90;;;;;;5050781;28;20071;-70
2023/03/06 07:51:23;;;;;;;2.00;1.50;;;2.80;99.90;;;;;;5046815;28;20048;-70
2023/03/06 07:53:49;;;;;;;2.20;1.27;;;2.80;99.90;;;;;;5047418;28;20037;-70
2023/03/06 07:56:15;;;;;;;1.63;1.40;;;2.80;99.90;;;;;;5050304;28;20063;-70
2023/03/06 07:58:44;;;;;;;2.78;1.50;;;2.80;99.90;;;;;;5048205;28;20056;-69
2023/03/06 08:01:12;;;;;;;1.50;1.38;;;2.70;99.90;;;;;;5050537;28;20070;-70
2023/03/06 08:03:38;;;;;;;2.83;1.30;;;2.70;99.90;;;;;;5031592;28;20033;-70
2023/03/06 08:06:12;;;;;;;1.27;1.17;;;2.70;99.90;;;;;;5047708;28;20357;-70
2023/03/06 08:08:39;;;;;;;1.48;1.20;;;2.80;99.90;;;;;;5050591;28;20045;-70
2023/03/06 08:11:06;;;;;;;2.45;1.20;;;2.70;99.90;;;;;;5048207;28;20040;-70
2023/03/06 08:13:31;;;;;;;2.72;1.27;;;2.70;99.90;;;;;;5049070;28;20177;-69
2023/03/06 08:15:58;;;;;;;1.52;1.08;;;2.70;99.90;;;;;;5050626;28;20136;-71
2023/03/06 08:18:25;;;;;;;2.65;1.30;;;2.80;99.90;;;;;;5032201;28;20071;-69
2023/03/06 08:21:05;;;;;;;1.27;1.10;;;2.80;99.90;;;;;;5050510;28;20051;-69
2023/03/06 08:23:32;;;;;;;1.70;1.40;;;2.90;99.90;;;;;;5066146;28;20068;-70
2023/03/06 08:25:59;;;;;;;2.65;1.30;;;3.00;99.90;;;;;;5049414;28;20036;-70
2023/03/06 08:28:25;;;;;;;2.10;1.30;;;3.10;99.90;;;;;;5033185;28;20029;-73
2023/03/06 08:30:51;;;;;;;2.45;1.50;;;3.30;99.90;;;;;;5050493;28;20041;-72
2023/03/06 08:33:17;;;;;;;2.35;1.20;;;3.40;99.90;;;;;;5031654;28;20060;-70
2023/03/06 08:35:42;;;;;;;1.38;0.90;;;3.60;99.90;;;;;;5049536;28;20391;-71
2023/03/06 08:38:08;;;;;;;1.58;0.85;;;3.70;99.90;;;;;;5050742;28;20040;-70
2023/03/06 08:40:34;;;;;;;0.70;0.70;;;3.80;99.90;;;;;;5047480;28;20553;-70
2023/03/06 08:42:59;;;;;;;2.13;0.98;;;3.90;99.90;;;;;;5044524;28;20103;-71
2023/03/06 08:45:25;;;;;;;1.92;1.13;;;4.00;99.90;;;;;;5046369;28;20041;-70
2023/03/06 08:47:50;;;;;;;3.55;1.20;;;4.00;99.90;;;;;;5050152;28;20037;-70
2023/03/06 08:50:17;;;;;;;2.58;0.80;;;4.20;99.90;;;;;;5048735;28;20041;-71
2023/03/06 08:52:44;;;;;;;0.82;0.60;;;4.30;99.90;;;;;;5048243;28;20045;-71
2023/03/06 08:55:10;;;;;;;2.35;0.70;;;4.40;99.90;;;;;;5048895;28;20057;-69
2023/03/06 08:57:35;;;;;;;2.15;0.80;;;4.40;99.90;;;;;;5047184;28;20107;-70
2023/03/06 09:00:05;;;;;;;2.35;0.88;;;4.60;99.90;;;;;;5049683;28;20049;-69
2023/03/06 09:02:31;;;;;;;2.58;0.85;;;4.70;99.90;;;;;;5048877;28;20052;-70
2023/03/06 09:04:58;;;;;;;2.78;0.98;;;4.80;99.90;;;;;;5029732;28;20084;-70
2023/03/06 09:07:24;;;;;;;2.15;0.80;;;5.00;99.90;;;;;;5047717;28;20438;-70
2023/03/06 09:09:49;;;;;;;1.52;0.90;;;5.20;99.90;;;;;;5049533;28;20041;-69
2023/03/06 09:12:15;;;;;;;1.98;0.82;;;5.40;99.90;;;;;;5049121;28;20033;-71
2023/03/06 09:14:41;;;;;;;1.40;0.73;;;5.70;99.90;;;;;;5049383;28;20041;-69
2023/03/06 09:17:06;;;;;;;3.05;0.68;;;5.70;99.90;;;;;;5045977;28;20086;-69
2023/03/06 09:19:32;;;;;;;2.78;0.75;;;5.80;99.90;;;;;;5045227;28;20044;-70
2023/03/06 09:21:59;;;;;;;3.38;0.90;;;6.00;99.90;;;;;;5049585;28;20123;-68
2023/03/06 09:24:25;;;;;;;0.93;0.70;;;6.20;99.90;;;;;;5047164;28;20044;-68
2023/03/06 09:26:51;;;;;;;2.90;0.90;;;6.20;99.90;;;;;;5048417;28;20045;-69
2023/03/06 09:29:16;;;;;;;3.30;0.80;;;6.30;99.90;;;;;;5046334;28;20060;-69
2023/03/06 09:31:43;;;;;;;2.47;0.77;;;6.30;99.90;;;;;;5045628;28;20186;-71
2023/03/06 09:34:08;;;;;;;2.72;0.95;;;6.40;99.90;;;;;;5049300;28;20438;-70
2023/03/06 09:36:34;;;;;;;3.20;0.80;;;6.50;99.90;;;;;;5047180;28;20044;-70
2023/03/06 09:39:00;;;;;;;3.05;0.80;;;6.60;99.90;;;;;;5064641;28;20072;-71
2023/03/06 09:41:34;;;;;;;2.92;1.02;;;7.00;99.90;;;;;;5029183;28;20122;-70
2023/03/06 09:44:21;;;;;;;3.08;0.68;;;7.00;99.90;;;;;;5047231;28;20029;-72
2023/03/06 09:47:12;;;;;;;2.75;0.73;;;7.00;99.90;;;;;;5048737;28;20037;-70
2023/03/06 09:49:49;;;;;;;2.00;0.65;;;7.20;99.90;;;;;;5048279;28;20032;-71
2023/03/06 09:52:17;;;;;;;3.08;0.75;;;7.40;99.90;;;;;;5047459;28;20040;-71
2023/03/06 09:54:45;;;;;;;3.65;0.70;;;7.40;99.90;;;;;;5047706;28;20049;-70
2023/03/06 09:57:58;;;;;;;1.85;0.60;;;7.30;99.90;;;;;;5045283;28;20052;-70
2023/03/06 10:00:48;;;;;;;1.85;0.50;;;7.60;99.90;;;;;;5031040;28;20183;-71
2023/03/06 10:03:19;;;;;;;1.52;0.70;;;8.00;99.90;;;;;;5019773;28;20140;-70
2023/03/06 10:06:11;;;;;;;2.13;0.57;;;7.90;99.90;;;;;;5029680;28;20511;-70
2023/03/06 10:08:56;;;;;;;1.90;0.55;;;7.40;99.90;;;;;;5030825;28;20144;-69
2023/03/06 10:11:49;;;;;;;1.55;0.52;;;7.60;99.90;;;;;;5061659;28;20049;-71
2023/03/06 10:14:33;;;;;;;3.03;0.90;;;7.90;99.90;;;;;;5030804;28;20056;-70
2023/03/06 10:17:00;;;;;;;2.40;0.47;;;7.80;99.90;;;;;;5030409;28;20048;-70
2023/03/06 10:19:41;;;;;;;1.55;0.50;;;7.40;99.90;;;;;;5063145;28;20041;-69
2023/03/06 10:22:21;;;;;;;1.65;0.50;;;7.20;99.90;;;;;;5065020;28;20079;-70
2023/03/06 10:24:56;;;;;;;2.00;0.43;;;6.90;99.90;;;;;;5067524;28;20087;-69
2023/03/06 10:27:46;;;;;;;1.80;0.60;;;6.80;99.90;;;;;;5034202;28;20107;-69
2023/03/06 10:30:22;;;;;;;2.97;0.57;;;7.20;99.90;;;;;;5034746;28;20029;-69
2023/03/06 10:32:57;;;;;;;1.50;0.70;;;7.90;99.90;;;;;;5032141;28;20092;-68
2023/03/06 10:35:52;;;;;;;2.15;0.75;;;8.50;99.90;;;;;;5051842;28;20044;-69
2023/03/06 10:38:30;;;;;;;3.47;0.57;;;9.10;99.90;;;;;;5067072;28;20048;-69
2023/03/06 10:41:11;;;;;;;4.25;0.68;;;9.10;99.90;;;;;;5052302;28;20048;-69
2023/03/06 10:44:04;;;;;;;2.08;0.60;;;8.80;99.90;;;;;;5050197;28;20036;-70
2023/03/06 10:46:42;;;;;;;3.97;0.47;;;8.70;99.90;;;;;;5066459;28;20104;-71
2023/03/06 10:49:28;;;;;;;3.47;0.65;;;8.60;99.90;;;;;;5068634;28;20083;-69
2023/03/06 10:52:01;;;;;;;1.65;0.47;;;8.70;99.90;;;;;;5051414;28;20476;-69
2023/03/06 10:54:39;;;;;;;3.65;0.40;;;8.60;99.90;;;;;;5046294;28;20054;-69
2023/03/06 10:57:28;;;;;;;1.13;0.38;;;8.50;99.90;;;;;;5052305;28;20435;-70
2023/03/06 11:00:21;;;;;;;4.38;0.60;;;8.20;99.90;;;;;;5050083;28;20120;-70
2023/03/06 11:03:05;;;;;;;3.03;0.88;;;8.40;99.90;;;;;;5050489;28;20501;-70
2023/03/06 11:05:31;;;;;;;2.78;0.75;;;8.10;99.90;;;;;;5032879;28;20044;-69
2023/03/06 11:07:59;;;;;;;3.25;1.00;;;7.90;99.90;;;;;;5051883;28;20392;-69
2023/03/06 11:10:26;;;;;;;3.47;1.00;;;7.90;99.90;;;;;;5048589;28;20044;-69
2023/03/06 11:12:59;;;;;;;4.15;1.10;;;8.20;99.90;;;;;;5051825;28;20221;-71
2023/03/06 11:15:27;;;;;;;3.35;0.90;;;8.10;99.90;;;;;;5050732;28;20145;-70
2023/03/06 11:17:57;;;;;;;3.10;0.70;;;8.30;99.90;;;;;;5051648;28;20040;-72
2023/03/06 11:20:23;;;;;;;3.00;1.27;;;8.30;99.90;;;;;;5048529;28;20556;-69
2023/03/06 11:23:15;;;;;;;4.60;1.20;;;8.40;99.90;;;;;;5034331;28;20120;-70
2023/03/06 11:26:13;;;;;;;2.58;0.80;;;8.60;99.90;;;;;;5051562;28;20067;-71
2023/03/06 11:29:18;;;;;;;1.77;0.80;;;8.80;97.40;;;;;;5032866;28;20040;-70
2023/03/06 11:31:55;;;;;;;3.88;0.90;;;9.00;96.60;;;;;;5033071;28;20041;-72
2023/03/06 11:34:46;;;;;;;2.85;0.47;;;9.10;96.00;;;;;;5066940;28;20492;-71
2023/03/06 11:37:18;;;;;;;1.95;0.80;;;9.50;97.30;;;;;;5047813;28;20064;-69
2023/03/06 11:40:12;;;;;;;2.13;0.73;;;9.70;97.40;;;;;;5032728;28;20052;-68
2023/03/06 11:42:57;;;;;;;3.15;0.82;;;10.20;97.90;;;;;;5031821;28;20077;-69
2023/03/06 11:45:42;;;;;;;2.67;0.70;;;10.80;98.50;;;;;;5032519;28;20056;-71
2023/03/06 11:48:14;;;;;;;2.60;0.98;;;10.80;95.00;;;;;;5031851;28;20040;-71
2023/03/06 11:50:46;;;;;;;2.25;1.00;;;11.00;95.90;;;;;;5034594;28;20079;-70
2023/03/06 11:53:21;;;;;;;3.35;1.15;;;10.80;95.10;;;;;;5029884;28;20049;-70
2023/03/06 11:56:10;;;;;;;3.30;1.33;;;10.50;96.00;;;;;;5065361;28;20099;-69
2023/03/06 11:58:50;;;;;;;3.42;1.20;;;9.90;95.90;;;;;;5031467;28;20520;-70
2023/03/06 12:01:40;;;;;;;3.15;1.35;;;9.20;95.70;;;;;;5033143;28;20519;-70
2023/03/06 12:04:51;;;;;;;5.85;1.02;;;8.90;95.40;;;;;;5014406;28;20043;-70
2023/03/06 12:07:33;;;;;;;2.15;1.15;;;8.30;95.30;;;;;;5058382;28;20045;-70
2023/03/06 12:10:08;;;;;;;2.87;1.07;;;7.90;96.80;;;;;;5048741;28;20591;-69
2023/03/06 12:12:48;;;;;;;1.70;0.70;;;7.80;97.70;;;;;;5083939;28;20302;-69
2023/03/06 12:15:14;;;;;;;2.60;1.40;;;8.30;97.60;;;;;;5050746;28;20041;-71
2023/03/06 12:17:58;;;;;;;4.13;1.25;;;8.80;98.40;;;;;;5050402;28;20039;-70
2023/03/06 12:20:46;;;;;;;3.60;1.15;;;9.10;95.70;;;;;;5050545;28;20041;-71
2023/03/06 12:23:33;;;;;;;2.85;1.00;;;9.10;97.20;;;;;;5051831;28;20488;-70
2023/03/06 12:26:39;;;;;;;1.10;0.70;;;9.10;96.80;;;;;;5034298;28;20048;-69
2023/03/06 12:29:12;;;;;;;5.40;0.90;;;9.00;95.20;;;;;;5050562;28;20119;-69
2023/03/06 12:31:47;;;;;;;2.33;0.70;;;8.60;95.20;;;;;;5034061;28;20123;-69
2023/03/06 12:34:32;;;;;;;4.43;0.85;;;8.40;96.90;;;;;;5047786;28;20067;-68
2023/03/06 12:36:58;;;;;;;2.63;0.75;;;8.60;96.40;;;;;;5049566;28;20450;-69
2023/03/06 12:39:54;;;;;;;2.75;0.70;;;8.50;96.30;;;;;;5046453;28;20045;-69
2023/03/06 12:42:39;;;;;;;2.60;0.80;;;8.60;97.40;;;;;;5034153;28;20488;-70
2023/03/06 12:45:14;;;;;;;3.72;0.60;;;8.60;95.60;;;;;;5029070;28;20530;-69
2023/03/06 12:47:46;;;;;;;1.98;0.80;;;8.90;97.00;;;;;;5033707;28;20094;-72
2023/03/06 12:50:19;;;;;;;1.98;0.65;;;8.80;95.80;;;;;;5048840;28;20060;-70
2023/03/06 12:52:47;;;;;;;4.65;0.98;;;8.60;94.80;;;;;;5050332;28;20037;-71
2023/03/06 12:55:17;;;;;;;3.00;0.75;;;8.70;96.40;;;;;;5033240;28;20578;-70
2023/03/06 12:57:43;;;;;;;3.28;1.00;;;8.90;96.30;;;;;;5049965;28;20462;-70
2023/03/06 13:00:32;;;;;;;3.05;0.80;;;9.00;95.50;;;;;;5047784;28;20434;-71
2023/03/06 13:03:16;;;;;;;2.58;0.80;;;8.90;94.30;;;;;;5033892;28;20115;-70
2023/03/06 13:05:57;;;;;;;1.20;0.50;;;8.80;95.40;;;;;;5049286;28;20037;-71
2023/03/06 13:08:28;;;;;;;1.67;0.55;;;9.00;95.80;;;;;;5049667;28;20037;-70
2023/03/06 13:11:39;;;;;;;2.72;0.80;;;8.80;94.70;;;;;;5045691;28;20098;-71
2023/03/06 13:14:25;;;;;;;1.98;0.70;;;9.00;95.20;;;;;;5044631;28;20057;-70